Springfield, GA (31329)

2:48 PM EDT on July 05, 2015 (GMT -0400)
Oxford Subdivision | | Change Station
CLOSE
Current Station
Personal Weather Station
Location: Rincon, GA
Elevation: 66 ft
Nearby Weather Stations

Elev 66 ft 32.29 °N, 81.23 °W | Updated 7 minutes ago

Mostly Cloudy
Mostly Cloudy
72.9 °F
Feels Like 72.9 °F
N
2.2
Wind Variable Wind from SSE

Today
High -- | Low -- °F
--% Chance of Precip.
Yesterday
High -- | Low -- °F
Precip. -- in
6:23 AM 8:36 PM
Waning Gibbous, 83% visible
Pressure 30.16 in
Visibility 1.5 miles
Clouds Scattered Clouds 2500 ft
Mostly Cloudy 4000 ft
Mostly Cloudy 8000 ft
Overcast 18000 ft
Dew Point 72 °F
Humidity 96%
Rainfall 0.48 in
Snow Depth Not available.
UV 4 out of 12
Pollen 1.00 out of 12
Air Quality Not available.
Flu Activity Not available.
SPECI KSAV 051844Z 31009KT 1 1/2SM R10/1200VP6000FT +TSRA BR SCT025CB BKN040 BKN080 OVC180 24/22 A3016 RMK AO2 RAB00 OCNL LTGICCA OHD-NE-E TS OHD-NE-E MOV NE CB SW MOV NE P0012

More Conditions Fewer Conditions

Pressure 30.16 in
Visibility 1.5 miles
Clouds Scattered Clouds 2500 ft
Mostly Cloudy 4000 ft
Mostly Cloudy 8000 ft
Overcast 18000 ft
Dew Point 72 °F
Humidity 96%
Rainfall 0.48 in
Snow Depth Not available.
UV 4 out of 12
Pollen 1.00 out of 12
Air Quality Not available.
Flu Activity Not available.
SPECI KSAV 051844Z 31009KT 1 1/2SM R10/1200VP6000FT +TSRA BR SCT025CB BKN040 BKN080 OVC180 24/22 A3016 RMK AO2 RAB00 OCNL LTGICCA OHD-NE-E TS OHD-NE-E MOV NE CB SW MOV NE P0012

More Conditions Fewer Conditions

10-Day Weather Forecast

×

Almanac

Astronomy

Jul. 05, 2015 Rise Set
Actual Time
Civil Twilight
Nautical Twilight
Astronomical Twilight
Moon
Length of Visible Light
Length of Day
Tomorrow will be .
, % of the Moon is Illuminated

Today's Extremes

State Highs State Lows

Community

WunderPhotos

Upload Photos

1,835,346 photos uploaded!

WunderBlogs® & News

Nearby

Air Quality

  Air Quality AQ Index Pollutant
Not available.

Snow Depth

Station Depth Elevation

Earthquake Activity

City Distance Mag. Time & Date
Minimum magnitude displayed is 2.5.

Coastal Water Temperatures

Place Temperature

Stations

Nearby Weather Stations

Station Location Temp. Windchill Dew Point Humidity Wind Precip. Elev Updated Type